sensor_id;sensor_type;location;lat;lon;timestamp;P1;durP1;ratioP1;P2;durP2;ratioP2
69034;SDS011;56091;55.756;37.412;2022-07-06T00:00:11;25.83;;;17.50;;
69034;SDS011;56091;55.756;37.412;2022-07-06T00:05:12;27.85;;;18.90;;
69034;SDS011;56091;55.756;37.412;2022-07-06T00:10:13;28.00;;;19.90;;
69034;SDS011;56091;55.756;37.412;2022-07-06T00:15:14;27.80;;;19.63;;
69034;SDS011;56091;55.756;37.412;2022-07-06T00:20:15;31.43;;;21.37;;
69034;SDS011;56091;55.756;37.412;2022-07-06T00:25:16;31.73;;;21.47;;
69034;SDS011;56091;55.756;37.412;2022-07-06T00:30:16;30.92;;;21.30;;
69034;SDS011;56091;55.756;37.412;2022-07-06T00:35:17;29.83;;;21.13;;
69034;SDS011;56091;55.756;37.412;2022-07-06T00:40:18;35.83;;;22.52;;
69034;SDS011;56091;55.756;37.412;2022-07-06T00:45:19;31.40;;;22.77;;
69034;SDS011;56091;55.756;37.412;2022-07-06T00:50:20;32.75;;;22.27;;
69034;SDS011;56091;55.756;37.412;2022-07-06T00:55:23;34.97;;;22.00;;
69034;SDS011;56091;55.756;37.412;2022-07-06T01:00:26;34.88;;;22.25;;
69034;SDS011;56091;55.756;37.412;2022-07-06T01:05:27;34.83;;;23.33;;
69034;SDS011;56091;55.756;37.412;2022-07-06T01:10:31;33.92;;;23.25;;
69034;SDS011;56091;55.756;37.412;2022-07-06T01:15:32;33.77;;;23.57;;
69034;SDS011;56091;55.756;37.412;2022-07-06T01:20:36;32.53;;;22.33;;
69034;SDS011;56091;55.756;37.412;2022-07-06T01:25:36;31.17;;;20.10;;
69034;SDS011;56091;55.756;37.412;2022-07-06T01:30:37;28.65;;;20.23;;
69034;SDS011;56091;55.756;37.412;2022-07-06T01:35:38;28.53;;;19.43;;
69034;SDS011;56091;55.756;37.412;2022-07-06T01:40:42;30.20;;;20.90;;
69034;SDS011;56091;55.756;37.412;2022-07-06T01:45:42;26.80;;;19.17;;
69034;SDS011;56091;55.756;37.412;2022-07-06T01:50:43;31.58;;;20.85;;
69034;SDS011;56091;55.756;37.412;2022-07-06T01:55:45;28.37;;;20.23;;
69034;SDS011;56091;55.756;37.412;2022-07-06T02:00:46;30.15;;;20.00;;
69034;SDS011;56091;55.756;37.412;2022-07-06T02:05:47;27.37;;;19.67;;
69034;SDS011;56091;55.756;37.412;2022-07-06T02:10:48;29.92;;;19.75;;
69034;SDS011;56091;55.756;37.412;2022-07-06T02:15:50;29.37;;;19.03;;
69034;SDS011;56091;55.756;37.412;2022-07-06T02:20:52;29.00;;;18.77;;
69034;SDS011;56091;55.756;37.412;2022-07-06T02:25:53;26.40;;;18.73;;
69034;SDS011;56091;55.756;37.412;2022-07-06T02:30:55;28.38;;;19.52;;
69034;SDS011;56091;55.756;37.412;2022-07-06T02:35:57;26.60;;;19.43;;
69034;SDS011;56091;55.756;37.412;2022-07-06T02:40:58;27.58;;;20.23;;
69034;SDS011;56091;55.756;37.412;2022-07-06T02:46:00;30.10;;;20.10;;
69034;SDS011;56091;55.756;37.412;2022-07-06T02:51:02;26.23;;;18.85;;
69034;SDS011;56091;55.756;37.412;2022-07-06T02:56:04;28.53;;;19.07;;
69034;SDS011;56091;55.756;37.412;2022-07-06T03:01:06;26.38;;;17.98;;
69034;SDS011;56091;55.756;37.412;2022-07-06T03:06:09;23.70;;;16.53;;
69034;SDS011;56091;55.756;37.412;2022-07-06T03:11:15;25.23;;;17.38;;
69034;SDS011;56091;55.756;37.412;2022-07-06T03:16:16;28.60;;;17.23;;
69034;SDS011;56091;55.756;37.412;2022-07-06T03:21:17;27.67;;;17.40;;
69034;SDS011;56091;55.756;37.412;2022-07-06T03:26:19;28.30;;;17.00;;
69034;SDS011;56091;55.756;37.412;2022-07-06T03:31:20;25.02;;;17.10;;
69034;SDS011;56091;55.756;37.412;2022-07-06T03:36:22;26.20;;;17.73;;
69034;SDS011;56091;55.756;37.412;2022-07-06T03:41:23;22.25;;;16.25;;
69034;SDS011;56091;55.756;37.412;2022-07-06T03:46:24;25.63;;;16.20;;
69034;SDS011;56091;55.756;37.412;2022-07-06T03:51:25;24.45;;;16.23;;
69034;SDS011;56091;55.756;37.412;2022-07-06T03:56:28;24.63;;;17.30;;
69034;SDS011;56091;55.756;37.412;2022-07-06T04:01:33;23.05;;;15.13;;
69034;SDS011;56091;55.756;37.412;2022-07-06T04:06:34;22.87;;;15.23;;
69034;SDS011;56091;55.756;37.412;2022-07-06T04:11:36;21.27;;;15.00;;
69034;SDS011;56091;55.756;37.412;2022-07-06T04:16:38;19.50;;;13.80;;
69034;SDS011;56091;55.756;37.412;2022-07-06T04:21:41;19.80;;;14.75;;
69034;SDS011;56091;55.756;37.412;2022-07-06T04:26:43;21.57;;;14.43;;
69034;SDS011;56091;55.756;37.412;2022-07-06T04:31:44;19.65;;;14.70;;
69034;SDS011;56091;55.756;37.412;2022-07-06T04:36:45;21.00;;;14.67;;
69034;SDS011;56091;55.756;37.412;2022-07-06T04:41:47;21.70;;;14.68;;
69034;SDS011;56091;55.756;37.412;2022-07-06T04:46:48;20.17;;;13.87;;
69034;SDS011;56091;55.756;37.412;2022-07-06T04:51:50;23.02;;;12.85;;
69034;SDS011;56091;55.756;37.412;2022-07-06T04:56:51;22.40;;;13.83;;
69034;SDS011;56091;55.756;37.412;2022-07-06T05:01:52;17.80;;;13.10;;
69034;SDS011;56091;55.756;37.412;2022-07-06T05:06:53;17.50;;;12.77;;
69034;SDS011;56091;55.756;37.412;2022-07-06T05:11:54;16.23;;;11.95;;
69034;SDS011;56091;55.756;37.412;2022-07-06T05:16:56;17.20;;;12.53;;
69034;SDS011;56091;55.756;37.412;2022-07-06T05:21:58;17.15;;;12.38;;
69034;SDS011;56091;55.756;37.412;2022-07-06T05:26:59;18.27;;;12.90;;
69034;SDS011;56091;55.756;37.412;2022-07-06T05:32:09;19.50;;;11.10;;
69034;SDS011;56091;55.756;37.412;2022-07-06T05:37:10;16.13;;;10.63;;
69034;SDS011;56091;55.756;37.412;2022-07-06T05:42:11;14.75;;;10.13;;
69034;SDS011;56091;55.756;37.412;2022-07-06T05:47:12;14.93;;;9.03;;
69034;SDS011;56091;55.756;37.412;2022-07-06T05:52:32;13.32;;;9.80;;
69034;SDS011;56091;55.756;37.412;2022-07-06T05:57:34;13.40;;;10.30;;
69034;SDS011;56091;55.756;37.412;2022-07-06T06:02:41;13.82;;;10.73;;
69034;SDS011;56091;55.756;37.412;2022-07-06T06:07:49;16.13;;;10.80;;
69034;SDS011;56091;55.756;37.412;2022-07-06T06:12:52;18.98;;;11.15;;
69034;SDS011;56091;55.756;37.412;2022-07-06T06:17:54;13.10;;;10.67;;
69034;SDS011;56091;55.756;37.412;2022-07-06T06:22:56;15.73;;;10.30;;
69034;SDS011;56091;55.756;37.412;2022-07-06T06:27:58;15.97;;;11.33;;
69034;SDS011;56091;55.756;37.412;2022-07-06T06:33:06;16.02;;;11.10;;
69034;SDS011;56091;55.756;37.412;2022-07-06T06:38:12;14.70;;;11.30;;
69034;SDS011;56091;55.756;37.412;2022-07-06T06:43:17;15.85;;;11.50;;
69034;SDS011;56091;55.756;37.412;2022-07-06T06:48:30;16.70;;;12.20;;
69034;SDS011;56091;55.756;37.412;2022-07-06T06:53:31;16.90;;;11.52;;
69034;SDS011;56091;55.756;37.412;2022-07-06T06:58:32;18.87;;;12.50;;
69034;SDS011;56091;55.756;37.412;2022-07-06T07:03:33;19.80;;;12.65;;
69034;SDS011;56091;55.756;37.412;2022-07-06T07:08:34;19.70;;;12.87;;
69034;SDS011;56091;55.756;37.412;2022-07-06T07:13:35;19.13;;;12.63;;
69034;SDS011;56091;55.756;37.412;2022-07-06T07:18:36;16.33;;;12.33;;
69034;SDS011;56091;55.756;37.412;2022-07-06T07:23:40;18.00;;;12.13;;
69034;SDS011;56091;55.756;37.412;2022-07-06T07:28:41;18.52;;;12.88;;
69034;SDS011;56091;55.756;37.412;2022-07-06T07:33:46;20.07;;;13.10;;
69034;SDS011;56091;55.756;37.412;2022-07-06T07:38:47;17.92;;;13.30;;
69034;SDS011;56091;55.756;37.412;2022-07-06T07:43:48;21.47;;;14.00;;
69034;SDS011;56091;55.756;37.412;2022-07-06T07:48:49;19.58;;;12.32;;
69034;SDS011;56091;55.756;37.412;2022-07-06T07:53:50;20.97;;;13.77;;
69034;SDS011;56091;55.756;37.412;2022-07-06T07:58:51;20.98;;;13.68;;
69034;SDS011;56091;55.756;37.412;2022-07-06T08:04:00;16.67;;;13.30;;
69034;SDS011;56091;55.756;37.412;2022-07-06T08:09:04;15.65;;;12.52;;
69034;SDS011;56091;55.756;37.412;2022-07-06T08:14:07;15.23;;;12.13;;
69034;SDS011;56091;55.756;37.412;2022-07-06T08:19:08;14.65;;;12.20;;
69034;SDS011;56091;55.756;37.412;2022-07-06T08:24:09;15.27;;;12.30;;
69034;SDS011;56091;55.756;37.412;2022-07-06T08:29:12;17.88;;;13.43;;
69034;SDS011;56091;55.756;37.412;2022-07-06T08:34:13;19.87;;;13.70;;
69034;SDS011;56091;55.756;37.412;2022-07-06T08:39:15;17.65;;;14.05;;
69034;SDS011;56091;55.756;37.412;2022-07-06T08:44:17;19.63;;;13.43;;
69034;SDS011;56091;55.756;37.412;2022-07-06T08:49:23;18.60;;;13.38;;
69034;SDS011;56091;55.756;37.412;2022-07-06T08:54:25;17.33;;;13.70;;
69034;SDS011;56091;55.756;37.412;2022-07-06T08:59:28;21.60;;;14.60;;
69034;SDS011;56091;55.756;37.412;2022-07-06T09:04:29;17.47;;;14.33;;
69034;SDS011;56091;55.756;37.412;2022-07-06T09:09:33;19.33;;;13.60;;
69034;SDS011;56091;55.756;37.412;2022-07-06T09:14:37;16.73;;;13.17;;
69034;SDS011;56091;55.756;37.412;2022-07-06T09:19:40;18.52;;;13.20;;
69034;SDS011;56091;55.756;37.412;2022-07-06T09:24:42;16.57;;;13.43;;
69034;SDS011;56091;55.756;37.412;2022-07-06T09:29:45;19.67;;;14.63;;
69034;SDS011;56091;55.756;37.412;2022-07-06T09:34:46;18.37;;;13.70;;
69034;SDS011;56091;55.756;37.412;2022-07-06T09:39:47;20.17;;;13.82;;
69034;SDS011;56091;55.756;37.412;2022-07-06T09:44:48;18.90;;;14.20;;
69034;SDS011;56091;55.756;37.412;2022-07-06T09:49:49;19.67;;;14.00;;
69034;SDS011;56091;55.756;37.412;2022-07-06T09:54:55;20.73;;;14.20;;
69034;SDS011;56091;55.756;37.412;2022-07-06T09:59:56;17.42;;;14.05;;
69034;SDS011;56091;55.756;37.412;2022-07-06T10:04:58;16.83;;;13.23;;
69034;SDS011;56091;55.756;37.412;2022-07-06T10:10:01;17.00;;;13.68;;
69034;SDS011;56091;55.756;37.412;2022-07-06T10:15:04;18.83;;;14.50;;
69034;SDS011;56091;55.756;37.412;2022-07-06T10:20:06;16.83;;;13.20;;
69034;SDS011;56091;55.756;37.412;2022-07-06T10:25:07;15.95;;;13.23;;
69034;SDS011;56091;55.756;37.412;2022-07-06T10:30:09;18.93;;;12.87;;
69034;SDS011;56091;55.756;37.412;2022-07-06T10:35:11;15.95;;;12.20;;
69034;SDS011;56091;55.756;37.412;2022-07-06T10:40:19;15.07;;;12.57;;
69034;SDS011;56091;55.756;37.412;2022-07-06T10:45:51;16.60;;;12.65;;
69034;SDS011;56091;55.756;37.412;2022-07-06T10:50:54;19.00;;;12.73;;
69034;SDS011;56091;55.756;37.412;2022-07-06T10:56:00;17.17;;;12.38;;
69034;SDS011;56091;55.756;37.412;2022-07-06T11:01:03;18.37;;;12.30;;
69034;SDS011;56091;55.756;37.412;2022-07-06T11:11:14;13.77;;;11.10;;
69034;SDS011;56091;55.756;37.412;2022-07-06T11:16:19;12.85;;;10.02;;
69034;SDS011;56091;55.756;37.412;2022-07-06T11:21:22;17.57;;;10.57;;
69034;SDS011;56091;55.756;37.412;2022-07-06T11:26:32;12.82;;;10.45;;
69034;SDS011;56091;55.756;37.412;2022-07-06T11:31:37;13.70;;;10.73;;
69034;SDS011;56091;55.756;37.412;2022-07-06T11:36:39;14.53;;;10.83;;
69034;SDS011;56091;55.756;37.412;2022-07-06T11:41:41;12.57;;;10.23;;
69034;SDS011;56091;55.756;37.412;2022-07-06T11:46:43;15.37;;;10.13;;
69034;SDS011;56091;55.756;37.412;2022-07-06T11:51:44;14.77;;;10.00;;
69034;SDS011;56091;55.756;37.412;2022-07-06T11:56:53;12.43;;;9.47;;
69034;SDS011;56091;55.756;37.412;2022-07-06T12:07:05;11.87;;;9.63;;
69034;SDS011;56091;55.756;37.412;2022-07-06T12:12:08;11.00;;;9.10;;
69034;SDS011;56091;55.756;37.412;2022-07-06T12:17:10;12.70;;;9.90;;
69034;SDS011;56091;55.756;37.412;2022-07-06T12:22:13;14.90;;;9.67;;
69034;SDS011;56091;55.756;37.412;2022-07-06T12:27:25;16.08;;;11.80;;
69034;SDS011;56091;55.756;37.412;2022-07-06T12:32:26;14.03;;;12.17;;
69034;SDS011;56091;55.756;37.412;2022-07-06T12:37:27;13.30;;;12.00;;
69034;SDS011;56091;55.756;37.412;2022-07-06T12:42:28;11.93;;;9.13;;
69034;SDS011;56091;55.756;37.412;2022-07-06T12:47:28;12.85;;;10.57;;
69034;SDS011;56091;55.756;37.412;2022-07-06T12:52:30;13.30;;;10.83;;
69034;SDS011;56091;55.756;37.412;2022-07-06T12:57:44;12.05;;;9.32;;
69034;SDS011;56091;55.756;37.412;2022-07-06T13:02:46;14.53;;;9.17;;
69034;SDS011;56091;55.756;37.412;2022-07-06T13:07:54;13.60;;;10.93;;
69034;SDS011;56091;55.756;37.412;2022-07-06T13:12:56;13.73;;;12.30;;
69034;SDS011;56091;55.756;37.412;2022-07-06T13:17:57;13.77;;;12.47;;
69034;SDS011;56091;55.756;37.412;2022-07-06T13:22:58;12.68;;;11.38;;
69034;SDS011;56091;55.756;37.412;2022-07-06T13:27:59;13.57;;;9.70;;
69034;SDS011;56091;55.756;37.412;2022-07-06T13:38:16;10.53;;;9.50;;
69034;SDS011;56091;55.756;37.412;2022-07-06T13:43:17;11.33;;;10.23;;
69034;SDS011;56091;55.756;37.412;2022-07-06T13:48:20;11.07;;;9.20;;
69034;SDS011;56091;55.756;37.412;2022-07-06T13:53:21;13.33;;;11.40;;
69034;SDS011;56091;55.756;37.412;2022-07-06T13:58:23;18.13;;;12.52;;
69034;SDS011;56091;55.756;37.412;2022-07-06T14:03:23;16.47;;;13.50;;
69034;SDS011;56091;55.756;37.412;2022-07-06T14:08:29;16.88;;;11.73;;
69034;SDS011;56091;55.756;37.412;2022-07-06T14:13:30;14.70;;;11.80;;
69034;SDS011;56091;55.756;37.412;2022-07-06T14:18:32;15.70;;;11.67;;
69034;SDS011;56091;55.756;37.412;2022-07-06T14:23:32;16.10;;;11.93;;
69034;SDS011;56091;55.756;37.412;2022-07-06T14:28:33;19.77;;;13.07;;
69034;SDS011;56091;55.756;37.412;2022-07-06T14:33:34;21.23;;;13.13;;
69034;SDS011;56091;55.756;37.412;2022-07-06T14:38:35;22.77;;;13.30;;
69034;SDS011;56091;55.756;37.412;2022-07-06T14:43:36;20.13;;;13.68;;
69034;SDS011;56091;55.756;37.412;2022-07-06T14:48:37;24.70;;;14.30;;
69034;SDS011;56091;55.756;37.412;2022-07-06T14:53:38;17.98;;;13.70;;
69034;SDS011;56091;55.756;37.412;2022-07-06T14:58:39;17.90;;;14.70;;
69034;SDS011;56091;55.756;37.412;2022-07-06T15:03:39;15.53;;;13.93;;
69034;SDS011;56091;55.756;37.412;2022-07-06T15:08:40;16.27;;;12.97;;
69034;SDS011;56091;55.756;37.412;2022-07-06T15:13:41;16.20;;;13.38;;
69034;SDS011;56091;55.756;37.412;2022-07-06T15:18:42;15.30;;;11.43;;
69034;SDS011;56091;55.756;37.412;2022-07-06T15:23:43;15.90;;;10.07;;
69034;SDS011;56091;55.756;37.412;2022-07-06T15:28:45;16.47;;;10.47;;
69034;SDS011;56091;55.756;37.412;2022-07-06T15:33:45;15.68;;;10.43;;
69034;SDS011;56091;55.756;37.412;2022-07-06T15:38:46;16.47;;;10.47;;
69034;SDS011;56091;55.756;37.412;2022-07-06T15:43:47;16.20;;;12.30;;
69034;SDS011;56091;55.756;37.412;2022-07-06T15:48:50;15.80;;;10.80;;
69034;SDS011;56091;55.756;37.412;2022-07-06T15:53:51;14.77;;;10.73;;
69034;SDS011;56091;55.756;37.412;2022-07-06T15:58:52;16.50;;;12.70;;
69034;SDS011;56091;55.756;37.412;2022-07-06T16:03:55;15.48;;;12.45;;
69034;SDS011;56091;55.756;37.412;2022-07-06T16:08:56;16.53;;;11.37;;
69034;SDS011;56091;55.756;37.412;2022-07-06T16:13:58;15.40;;;12.60;;
69034;SDS011;56091;55.756;37.412;2022-07-06T16:18:59;14.97;;;13.10;;
69034;SDS011;56091;55.756;37.412;2022-07-06T16:24:00;16.48;;;13.18;;
69034;SDS011;56091;55.756;37.412;2022-07-06T16:29:01;16.03;;;11.37;;
69034;SDS011;56091;55.756;37.412;2022-07-06T16:34:02;14.75;;;9.98;;
69034;SDS011;56091;55.756;37.412;2022-07-06T16:39:03;14.73;;;9.53;;
69034;SDS011;56091;55.756;37.412;2022-07-06T16:44:05;12.95;;;9.80;;
69034;SDS011;56091;55.756;37.412;2022-07-06T16:49:05;13.63;;;8.73;;
69034;SDS011;56091;55.756;37.412;2022-07-06T16:54:06;17.25;;;8.02;;
69034;SDS011;56091;55.756;37.412;2022-07-06T16:59:07;12.17;;;6.20;;
69034;SDS011;56091;55.756;37.412;2022-07-06T17:04:08;14.70;;;5.53;;
69034;SDS011;56091;55.756;37.412;2022-07-06T17:09:09;10.00;;;4.90;;
69034;SDS011;56091;55.756;37.412;2022-07-06T17:14:09;11.60;;;5.88;;
69034;SDS011;56091;55.756;37.412;2022-07-06T17:19:10;9.93;;;5.73;;
69034;SDS011;56091;55.756;37.412;2022-07-06T17:24:14;12.02;;;6.22;;
69034;SDS011;56091;55.756;37.412;2022-07-06T17:29:15;11.20;;;6.60;;
69034;SDS011;56091;55.756;37.412;2022-07-06T17:34:16;11.35;;;6.10;;
69034;SDS011;56091;55.756;37.412;2022-07-06T17:39:17;10.60;;;6.00;;
69034;SDS011;56091;55.756;37.412;2022-07-06T17:44:17;14.37;;;6.67;;
69034;SDS011;56091;55.756;37.412;2022-07-06T17:49:18;12.55;;;7.13;;
69034;SDS011;56091;55.756;37.412;2022-07-06T17:54:19;10.07;;;6.77;;
69034;SDS011;56091;55.756;37.412;2022-07-06T17:59:20;11.77;;;7.18;;
69034;SDS011;56091;55.756;37.412;2022-07-06T18:04:21;13.20;;;6.87;;
69034;SDS011;56091;55.756;37.412;2022-07-06T18:09:22;10.45;;;6.95;;
69034;SDS011;56091;55.756;37.412;2022-07-06T18:14:23;11.40;;;7.03;;
69034;SDS011;56091;55.756;37.412;2022-07-06T18:19:24;12.60;;;7.30;;
69034;SDS011;56091;55.756;37.412;2022-07-06T18:24:25;15.20;;;7.97;;
69034;SDS011;56091;55.756;37.412;2022-07-06T18:29:26;13.27;;;8.60;;
69034;SDS011;56091;55.756;37.412;2022-07-06T18:34:27;13.30;;;7.93;;
69034;SDS011;56091;55.756;37.412;2022-07-06T18:39:28;14.40;;;8.10;;
69034;SDS011;56091;55.756;37.412;2022-07-06T18:44:31;13.07;;;7.80;;
69034;SDS011;56091;55.756;37.412;2022-07-06T18:49:34;12.30;;;7.85;;
69034;SDS011;56091;55.756;37.412;2022-07-06T18:54:35;13.43;;;8.63;;
69034;SDS011;56091;55.756;37.412;2022-07-06T18:59:36;17.92;;;9.82;;
69034;SDS011;56091;55.756;37.412;2022-07-06T19:04:39;16.13;;;9.13;;
69034;SDS011;56091;55.756;37.412;2022-07-06T19:09:41;14.35;;;9.55;;
69034;SDS011;56091;55.756;37.412;2022-07-06T19:14:42;13.60;;;9.17;;
69034;SDS011;56091;55.756;37.412;2022-07-06T19:19:43;14.38;;;9.13;;
69034;SDS011;56091;55.756;37.412;2022-07-06T19:24:44;12.97;;;8.40;;
69034;SDS011;56091;55.756;37.412;2022-07-06T19:29:45;13.60;;;8.30;;
69034;SDS011;56091;55.756;37.412;2022-07-06T19:34:47;13.57;;;8.50;;
69034;SDS011;56091;55.756;37.412;2022-07-06T19:39:48;14.75;;;7.55;;
69034;SDS011;56091;55.756;37.412;2022-07-06T19:44:49;11.67;;;8.07;;
69034;SDS011;56091;55.756;37.412;2022-07-06T19:49:49;19.42;;;8.82;;
69034;SDS011;56091;55.756;37.412;2022-07-06T19:54:57;14.50;;;9.27;;
69034;SDS011;56091;55.756;37.412;2022-07-06T19:59:58;14.18;;;9.70;;
69034;SDS011;56091;55.756;37.412;2022-07-06T20:04:59;14.57;;;10.70;;
69034;SDS011;56091;55.756;37.412;2022-07-06T20:09:59;17.42;;;10.48;;
69034;SDS011;56091;55.756;37.412;2022-07-06T20:15:03;17.90;;;10.77;;
69034;SDS011;56091;55.756;37.412;2022-07-06T20:20:05;20.20;;;11.10;;
69034;SDS011;56091;55.756;37.412;2022-07-06T20:25:06;15.70;;;10.77;;
69034;SDS011;56091;55.756;37.412;2022-07-06T20:30:08;16.90;;;11.20;;
69034;SDS011;56091;55.756;37.412;2022-07-06T20:35:10;16.87;;;10.43;;
69034;SDS011;56091;55.756;37.412;2022-07-06T20:40:13;16.52;;;10.88;;
69034;SDS011;56091;55.756;37.412;2022-07-06T20:45:15;18.73;;;11.00;;
69034;SDS011;56091;55.756;37.412;2022-07-06T20:50:16;18.90;;;10.95;;
69034;SDS011;56091;55.756;37.412;2022-07-06T20:55:17;16.57;;;11.00;;
69034;SDS011;56091;55.756;37.412;2022-07-06T21:00:18;17.27;;;11.45;;
69034;SDS011;56091;55.756;37.412;2022-07-06T21:05:20;18.43;;;12.10;;
69034;SDS011;56091;55.756;37.412;2022-07-06T21:10:21;22.60;;;12.60;;
69034;SDS011;56091;55.756;37.412;2022-07-06T21:15:22;19.15;;;11.77;;
69034;SDS011;56091;55.756;37.412;2022-07-06T21:20:24;21.47;;;12.03;;
69034;SDS011;56091;55.756;37.412;2022-07-06T21:25:24;20.25;;;12.38;;
69034;SDS011;56091;55.756;37.412;2022-07-06T21:30:25;19.53;;;12.10;;
69034;SDS011;56091;55.756;37.412;2022-07-06T21:35:26;24.80;;;12.65;;
69034;SDS011;56091;55.756;37.412;2022-07-06T21:40:27;19.27;;;12.73;;
69034;SDS011;56091;55.756;37.412;2022-07-06T21:45:28;19.58;;;12.32;;
69034;SDS011;56091;55.756;37.412;2022-07-06T21:50:29;19.70;;;12.27;;
69034;SDS011;56091;55.756;37.412;2022-07-06T21:55:31;20.65;;;12.77;;
69034;SDS011;56091;55.756;37.412;2022-07-06T22:00:32;19.13;;;12.13;;
69034;SDS011;56091;55.756;37.412;2022-07-06T22:05:33;21.52;;;12.48;;
69034;SDS011;56091;55.756;37.412;2022-07-06T22:10:34;20.00;;;12.53;;
69034;SDS011;56091;55.756;37.412;2022-07-06T22:15:35;20.13;;;13.25;;
69034;SDS011;56091;55.756;37.412;2022-07-06T22:20:36;21.20;;;13.10;;
69034;SDS011;56091;55.756;37.412;2022-07-06T22:25:37;19.50;;;12.93;;
69034;SDS011;56091;55.756;37.412;2022-07-06T22:30:38;19.27;;;12.57;;
69034;SDS011;56091;55.756;37.412;2022-07-06T22:35:38;18.60;;;12.32;;
69034;SDS011;56091;55.756;37.412;2022-07-06T22:40:39;19.23;;;12.47;;
69034;SDS011;56091;55.756;37.412;2022-07-06T22:45:59;19.00;;;12.70;;
69034;SDS011;56091;55.756;37.412;2022-07-06T22:51:01;17.30;;;12.70;;
69034;SDS011;56091;55.756;37.412;2022-07-06T22:56:05;16.20;;;12.10;;
69034;SDS011;56091;55.756;37.412;2022-07-06T23:01:07;18.55;;;11.02;;
69034;SDS011;56091;55.756;37.412;2022-07-06T23:06:08;16.37;;;11.77;;
69034;SDS011;56091;55.756;37.412;2022-07-06T23:11:09;16.55;;;11.55;;
69034;SDS011;56091;55.756;37.412;2022-07-06T23:16:10;17.53;;;12.00;;
69034;SDS011;56091;55.756;37.412;2022-07-06T23:21:12;20.27;;;11.63;;
69034;SDS011;56091;55.756;37.412;2022-07-06T23:26:13;17.47;;;11.33;;
69034;SDS011;56091;55.756;37.412;2022-07-06T23:31:14;19.35;;;11.90;;
69034;SDS011;56091;55.756;37.412;2022-07-06T23:36:15;17.67;;;12.50;;
69034;SDS011;56091;55.756;37.412;2022-07-06T23:41:15;20.40;;;12.30;;
69034;SDS011;56091;55.756;37.412;2022-07-06T23:46:19;26.90;;;12.67;;
69034;SDS011;56091;55.756;37.412;2022-07-06T23:51:21;17.88;;;12.00;;
69034;SDS011;56091;55.756;37.412;2022-07-06T23:56:25;19.20;;;12.30;;
